createdAt,value
2023-04-09T00:00:21.563Z,73.72
2023-04-09T00:04:04.236Z,73.84
2023-04-09T00:07:46.918Z,74.13
2023-04-09T00:11:31.188Z,74.26
2023-04-09T00:15:24.113Z,74.17
2023-04-09T00:19:13.364Z,74.48
2023-04-09T00:22:56.507Z,74.23
2023-04-09T00:26:41.021Z,74.18
2023-04-09T00:30:23.881Z,74.56
2023-04-09T00:34:07.046Z,74.06
2023-04-09T00:37:49.930Z,74.81
2023-04-09T00:41:32.633Z,74.66
2023-04-09T00:45:16.616Z,74.64
2023-04-09T00:48:59.290Z,74.52
2023-04-09T00:52:43.164Z,73.82
2023-04-09T00:56:25.839Z,73.94
2023-04-09T01:00:09.730Z,73.78
2023-04-09T01:03:53.793Z,74.22
2023-04-09T01:07:44.152Z,73.93
2023-04-09T01:11:33.486Z,74.30
2023-04-09T01:15:19.572Z,74.28
2023-04-09T01:19:10.769Z,74.03
2023-04-09T01:22:59.167Z,74.18
2023-04-09T01:26:49.265Z,73.90
2023-04-09T01:30:33.370Z,74.49
2023-04-09T01:34:16.718Z,74.14
2023-04-09T01:37:59.701Z,73.98
2023-04-09T01:41:42.632Z,74.21
2023-04-09T01:45:25.785Z,74.00
2023-04-09T01:49:15.697Z,74.30
2023-04-09T01:52:58.365Z,74.11
2023-04-09T01:56:42.243Z,73.79
2023-04-09T02:00:32.764Z,73.44
2023-04-09T02:04:21.440Z,73.63
2023-04-09T02:08:04.934Z,73.73
2023-04-09T02:11:48.988Z,73.57
2023-04-09T02:15:33.158Z,72.84
2023-04-09T02:19:15.913Z,73.13
2023-04-09T02:22:59.877Z,73.00
2023-04-09T02:26:42.537Z,73.04
2023-04-09T02:30:25.335Z,73.13
2023-04-09T02:34:08.030Z,72.82
2023-04-09T02:37:50.663Z,72.86
2023-04-09T02:41:34.660Z,72.77
2023-04-09T02:45:17.448Z,73.54
2023-04-09T02:49:00.131Z,73.64
2023-04-09T02:52:42.774Z,73.60
2023-04-09T02:56:25.409Z,73.93
2023-04-09T03:00:10.938Z,74.55
2023-04-09T03:03:53.710Z,74.53
2023-04-09T03:07:36.365Z,74.61
2023-04-09T03:11:19.028Z,74.38
2023-04-09T03:15:01.697Z,74.17
2023-04-09T03:18:45.699Z,74.23
2023-04-09T03:22:28.361Z,73.72
2023-04-09T03:26:10.989Z,73.80
2023-04-09T03:29:56.950Z,73.55
2023-04-09T03:33:39.573Z,73.36
2023-04-09T03:37:23.541Z,73.53
2023-04-09T03:41:06.262Z,73.49
2023-04-09T03:44:48.924Z,73.54
2023-04-09T03:48:31.725Z,73.48
2023-04-09T03:52:14.344Z,73.68
2023-04-09T03:55:58.358Z,74.24
2023-04-09T03:59:41.006Z,73.95
2023-04-09T04:03:23.765Z,74.10
2023-04-09T04:07:07.705Z,74.99
2023-04-09T04:10:50.343Z,75.00
2023-04-09T04:14:34.318Z,75.27
2023-04-09T04:18:16.947Z,75.73
2023-04-09T04:21:59.610Z,75.61
2023-04-09T04:25:42.932Z,76.05
2023-04-09T04:29:25.606Z,77.16
2023-04-09T04:33:09.735Z,77.59
2023-04-09T04:36:52.372Z,78.08
2023-04-09T04:40:36.813Z,77.34
2023-04-09T04:44:19.741Z,78.15
2023-04-09T04:48:02.421Z,78.29
2023-04-09T04:51:46.542Z,78.96
2023-04-09T04:55:29.178Z,78.82
2023-04-09T04:59:11.794Z,79.27
2023-04-09T05:02:54.590Z,79.80
2023-04-09T05:06:37.454Z,80.28
2023-04-09T05:10:21.852Z,80.27
2023-04-09T05:14:04.761Z,79.93
2023-04-09T05:17:47.448Z,80.20
2023-04-09T05:21:30.151Z,79.69
2023-04-09T05:25:15.989Z,79.58
2023-04-09T05:29:00.113Z,79.71
2023-04-09T05:32:42.800Z,79.27
2023-04-09T05:36:25.958Z,78.58
2023-04-09T05:40:09.751Z,79.35
2023-04-09T05:43:52.509Z,79.40
2023-04-09T05:47:36.963Z,79.61
2023-04-09T05:51:19.632Z,79.86
2023-04-09T05:55:02.253Z,79.82
2023-04-09T05:58:44.926Z,79.75
2023-04-09T06:02:27.843Z,79.76
2023-04-09T06:06:11.972Z,79.19
2023-04-09T06:09:56.038Z,78.68
2023-04-09T06:13:38.797Z,78.38
2023-04-09T06:17:21.718Z,78.05
2023-04-09T06:21:04.794Z,78.16
2023-04-09T06:24:48.766Z,78.49
2023-04-09T06:28:31.535Z,78.12
2023-04-09T06:32:14.213Z,77.01
2023-04-09T06:35:56.880Z,76.62
2023-04-09T06:39:42.540Z,78.01
2023-04-09T06:43:29.049Z,76.47
2023-04-09T06:47:11.809Z,74.00
2023-04-09T06:50:54.574Z,73.80
2023-04-09T06:54:37.230Z,73.54
2023-04-09T06:58:21.016Z,71.44
2023-04-09T07:02:05.206Z,71.30
2023-04-09T07:05:52.054Z,71.04
2023-04-09T07:09:34.831Z,70.67
2023-04-09T07:13:17.496Z,69.59
2023-04-09T07:17:00.126Z,68.71
2023-04-09T07:20:44.126Z,68.11
2023-04-09T07:24:26.778Z,68.10
2023-04-09T07:28:09.503Z,67.35
2023-04-09T07:31:52.192Z,67.62
2023-04-09T07:35:35.067Z,68.02
2023-04-09T07:39:19.454Z,67.80
2023-04-09T07:43:02.097Z,66.86
2023-04-09T07:46:45.073Z,66.09
2023-04-09T07:50:27.915Z,66.12
2023-04-09T07:54:10.637Z,65.69
2023-04-09T07:57:54.683Z,64.89
2023-04-09T08:01:37.746Z,64.91
2023-04-09T08:05:20.944Z,63.12
2023-04-09T08:09:03.783Z,60.71
2023-04-09T08:12:46.432Z,60.54
2023-04-09T08:16:31.197Z,60.93
2023-04-09T08:20:14.121Z,61.43
2023-04-09T08:24:01.222Z,62.09
2023-04-09T08:27:43.900Z,61.48
2023-04-09T08:31:27.356Z,60.35
2023-04-09T08:35:11.910Z,59.92
2023-04-09T08:38:56.005Z,59.86
2023-04-09T08:42:41.339Z,58.08
2023-04-09T08:46:24.879Z,58.46
2023-04-09T08:50:08.338Z,59.23
2023-04-09T08:53:57.574Z,58.46
2023-04-09T08:57:40.545Z,58.96
2023-04-09T09:01:24.127Z,58.41
2023-04-09T09:05:07.697Z,58.82
2023-04-09T09:09:01.485Z,56.33
2023-04-09T09:12:44.952Z,57.08
2023-04-09T09:16:28.267Z,57.05
2023-04-09T09:20:20.799Z,55.25
2023-04-09T09:24:17.796Z,54.94
2023-04-09T09:28:09.635Z,54.54
2023-04-09T09:31:53.846Z,56.00
2023-04-09T09:35:50.324Z,56.73
2023-04-09T09:39:45.484Z,57.39
2023-04-09T09:43:41.748Z,57.40
2023-04-09T09:47:25.402Z,56.23
2023-04-09T09:51:10.343Z,55.03
2023-04-09T09:54:55.741Z,54.99
2023-04-09T09:58:39.730Z,52.39
2023-04-09T10:02:26.769Z,53.09
2023-04-09T10:06:10.465Z,55.75
2023-04-09T10:09:55.707Z,53.61
2023-04-09T10:13:40.258Z,51.79
2023-04-09T10:17:23.023Z,52.36
2023-04-09T10:21:13.752Z,52.19
2023-04-09T10:24:58.126Z,51.23
2023-04-09T10:28:41.312Z,51.22
2023-04-09T10:32:26.599Z,50.72
2023-04-09T10:36:13.213Z,49.79
2023-04-09T10:39:57.920Z,48.48
2023-04-09T10:43:41.110Z,49.36
2023-04-09T10:47:32.907Z,48.90
2023-04-09T10:51:19.844Z,49.48
2023-04-09T10:55:04.068Z,48.87
2023-04-09T10:58:46.710Z,49.54
2023-04-09T11:02:59.235Z,49.18
2023-04-09T11:06:43.436Z,48.66
2023-04-09T11:10:28.374Z,49.10
2023-04-09T11:14:11.082Z,49.39
2023-04-09T11:17:53.949Z,50.32
2023-04-09T11:21:37.609Z,48.92
2023-04-09T11:25:21.358Z,48.97
2023-04-09T11:29:08.144Z,49.66
2023-04-09T11:32:51.380Z,48.89
2023-04-09T11:36:35.763Z,47.76
2023-04-09T11:40:19.535Z,46.90
2023-04-09T11:44:03.950Z,47.24
2023-04-09T11:47:48.411Z,47.40
2023-04-09T11:51:31.703Z,44.24
2023-04-09T11:55:24.138Z,46.25
2023-04-09T11:59:06.858Z,48.00
2023-04-09T12:02:51.810Z,46.11
2023-04-09T12:06:39.040Z,45.69
2023-04-09T12:10:27.095Z,47.70
2023-04-09T12:14:15.275Z,47.83
2023-04-09T12:18:01.150Z,48.40
2023-04-09T12:21:47.822Z,48.67
2023-04-09T12:25:30.928Z,48.33
2023-04-09T12:29:15.206Z,46.72
2023-04-09T12:32:59.581Z,47.64
2023-04-09T12:36:42.531Z,46.93
2023-04-09T12:40:25.224Z,48.39
2023-04-09T12:44:07.945Z,48.29
2023-04-09T12:47:51.113Z,47.62
2023-04-09T12:51:35.129Z,47.67
2023-04-09T12:55:17.881Z,48.96
2023-04-09T12:59:00.665Z,48.47
2023-04-09T13:02:43.656Z,48.41
2023-04-09T13:06:26.410Z,46.97
2023-04-09T13:10:11.095Z,45.46
2023-04-09T13:13:54.022Z,47.28
2023-04-09T13:17:36.932Z,45.35
2023-04-09T13:21:19.613Z,45.73
2023-04-09T13:25:02.228Z,47.09
2023-04-09T13:28:46.294Z,47.27
2023-04-09T13:32:28.994Z,47.44
2023-04-09T13:36:12.157Z,47.20
2023-04-09T13:39:54.879Z,47.32
2023-04-09T13:43:37.466Z,48.19
2023-04-09T13:47:21.760Z,48.26
2023-04-09T13:51:04.591Z,48.91
2023-04-09T13:54:47.249Z,48.67
2023-04-09T13:58:29.868Z,48.54
2023-04-09T14:02:12.594Z,48.48
2023-04-09T14:05:56.730Z,49.26
2023-04-09T14:09:39.385Z,47.98
2023-04-09T14:13:22.037Z,45.79
2023-04-09T14:17:04.747Z,46.11
2023-04-09T14:20:47.390Z,43.98
2023-04-09T14:24:31.377Z,45.60
2023-04-09T14:28:14.016Z,42.79
2023-04-09T14:31:57.400Z,43.13
2023-04-09T14:35:40.064Z,40.46
2023-04-09T14:39:22.747Z,40.44
2023-04-09T14:43:06.773Z,40.08
2023-04-09T14:46:49.454Z,39.98
2023-04-09T14:50:32.259Z,38.22
2023-04-09T14:54:17.627Z,38.80
2023-04-09T14:58:01.542Z,38.50
2023-04-09T15:01:45.567Z,39.24
2023-04-09T15:05:28.224Z,40.80
2023-04-09T15:09:10.830Z,40.52
2023-04-09T15:12:53.463Z,40.68
2023-04-09T15:16:37.434Z,39.29
2023-04-09T15:20:21.684Z,37.86
2023-04-09T15:24:04.463Z,37.36
2023-04-09T15:27:47.192Z,36.46
2023-04-09T15:31:29.885Z,35.05
2023-04-09T15:35:14.233Z,34.46
2023-04-09T15:38:58.211Z,33.46
2023-04-09T15:42:40.969Z,32.77
2023-04-09T15:46:23.634Z,33.40
2023-04-09T15:50:07.415Z,32.93
2023-04-09T15:53:50.047Z,32.38
2023-04-09T15:57:34.103Z,31.92
2023-04-09T16:01:17.262Z,32.45
2023-04-09T16:05:00.017Z,32.50
2023-04-09T16:08:42.656Z,32.28
2023-04-09T16:12:25.503Z,32.13
2023-04-09T16:16:09.860Z,32.64
2023-04-09T16:19:52.747Z,35.26
2023-04-09T16:23:35.390Z,36.13
2023-04-09T16:27:18.003Z,35.03
2023-04-09T16:31:00.741Z,34.88
2023-04-09T16:34:44.726Z,35.24
2023-04-09T16:38:29.201Z,37.78
2023-04-09T16:42:14.350Z,36.20
2023-04-09T16:45:57.148Z,34.33
2023-04-09T16:49:39.833Z,35.31
2023-04-09T16:53:23.833Z,36.51
2023-04-09T16:57:06.481Z,35.09
2023-04-09T17:00:50.704Z,37.73
2023-04-09T17:04:34.729Z,38.25
2023-04-09T17:08:17.850Z,38.45
2023-04-09T17:12:01.862Z,39.96
2023-04-09T17:15:44.468Z,40.51
2023-04-09T17:19:27.259Z,40.67
2023-04-09T17:23:09.978Z,42.65
2023-04-09T17:26:52.756Z,43.26
2023-04-09T17:30:36.861Z,43.76
2023-04-09T17:34:19.590Z,44.54
2023-04-09T17:38:02.369Z,44.66
2023-04-09T17:41:45.020Z,45.33
2023-04-09T17:45:27.766Z,45.30
2023-04-09T17:49:11.896Z,45.47
2023-04-09T17:52:54.572Z,47.08
2023-04-09T17:56:39.014Z,47.28
2023-04-09T18:00:21.783Z,47.97
2023-04-09T18:04:04.658Z,48.46
2023-04-09T18:07:48.870Z,48.96
2023-04-09T18:11:31.892Z,49.64
2023-04-09T18:15:15.100Z,49.53
2023-04-09T18:18:57.705Z,49.92
2023-04-09T18:22:41.287Z,49.68
2023-04-09T18:26:25.393Z,49.16
2023-04-09T18:30:09.072Z,50.06
2023-04-09T18:33:52.350Z,50.64
2023-04-09T18:37:35.148Z,51.94
2023-04-09T18:41:23.130Z,52.62
2023-04-09T18:45:07.905Z,52.63
2023-04-09T18:48:50.684Z,52.70
2023-04-09T18:52:33.501Z,53.12
2023-04-09T18:56:16.092Z,53.20
2023-04-09T18:59:58.696Z,55.18
2023-04-09T19:03:43.482Z,55.37
2023-04-09T19:07:26.417Z,56.20
2023-04-09T19:11:09.086Z,56.55
2023-04-09T19:14:51.714Z,55.93
2023-04-09T19:18:34.942Z,56.26
2023-04-09T19:22:18.890Z,55.62
2023-04-09T19:26:01.861Z,56.35
2023-04-09T19:29:46.187Z,56.51
2023-04-09T19:33:28.808Z,56.48
2023-04-09T19:37:34.692Z,55.81
2023-04-09T19:41:56.578Z,55.55
2023-04-09T19:45:39.647Z,55.78
2023-04-09T19:49:22.284Z,55.92
2023-04-09T19:53:06.917Z,56.71
2023-04-09T19:56:49.520Z,57.07
2023-04-09T20:00:33.432Z,57.37
2023-04-09T20:04:16.241Z,58.13
2023-04-09T20:07:59.291Z,58.09
2023-04-09T20:11:43.237Z,58.36
2023-04-09T20:15:26.613Z,58.39
2023-04-09T20:19:09.316Z,58.41
2023-04-09T20:22:56.109Z,58.54
2023-04-09T20:26:39.187Z,58.88
2023-04-09T20:30:23.554Z,59.25
2023-04-09T20:34:06.270Z,60.02
2023-04-09T20:37:49.937Z,60.17
2023-04-09T20:41:32.616Z,61.00
2023-04-09T20:45:15.700Z,61.25
2023-04-09T20:49:00.681Z,61.25
2023-04-09T20:52:43.284Z,61.97
2023-04-09T20:56:26.011Z,62.57
2023-04-09T21:00:10.175Z,62.83
2023-04-09T21:03:53.219Z,63.22
2023-04-09T21:07:37.289Z,63.39
2023-04-09T21:11:19.988Z,63.39
2023-04-09T21:15:02.636Z,63.06
2023-04-09T21:18:46.003Z,63.09
2023-04-09T21:22:28.588Z,63.07
2023-04-09T21:26:13.175Z,62.49
2023-04-09T21:29:55.805Z,62.86
2023-04-09T21:33:39.051Z,62.84
2023-04-09T21:37:21.885Z,62.75
2023-04-09T21:41:04.743Z,62.63
2023-04-09T21:44:48.733Z,62.46
2023-04-09T21:48:31.637Z,62.26
2023-04-09T21:52:15.177Z,63.01
2023-04-09T21:55:57.882Z,63.34
2023-04-09T21:59:41.241Z,63.24
2023-04-09T22:03:25.886Z,62.92
2023-04-09T22:07:08.712Z,62.63
2023-04-09T22:10:51.427Z,62.25
2023-04-09T22:14:34.112Z,62.02
2023-04-09T22:18:16.913Z,62.04
2023-04-09T22:22:00.956Z,61.77
2023-04-09T22:25:43.551Z,61.95
2023-04-09T22:29:26.514Z,61.43
2023-04-09T22:33:09.264Z,61.79
2023-04-09T22:36:51.992Z,61.79
2023-04-09T22:40:36.184Z,62.41
2023-04-09T22:44:19.076Z,62.02
2023-04-09T22:48:01.871Z,62.65
2023-04-09T22:51:44.522Z,62.77
2023-04-09T22:55:27.337Z,62.90
2023-04-09T22:59:11.325Z,62.77
2023-04-09T23:02:54.121Z,63.52
2023-04-09T23:06:37.716Z,63.18
2023-04-09T23:10:20.369Z,63.26
2023-04-09T23:14:03.052Z,63.45
2023-04-09T23:17:47.188Z,63.58
2023-04-09T23:21:29.841Z,63.87
2023-04-09T23:25:13.317Z,64.15
2023-04-09T23:28:56.006Z,64.49
2023-04-09T23:32:38.730Z,64.19
2023-04-09T23:36:24.144Z,64.24
2023-04-09T23:40:07.928Z,64.29
2023-04-09T23:43:51.793Z,64.48
2023-04-09T23:47:35.996Z,64.65
2023-04-09T23:51:19.226Z,64.45
2023-04-09T23:55:03.342Z,64.23
2023-04-09T23:58:46.375Z,64.92
